Terminal Aerodrome Forecast
Issued by NWS

Home | Current Version | Previous Version | Text Only | Print | Product List | Glossary On
Versions: 1 2 3 4 5 6 7 8 9 10 11 12 13 14 15 16 17 18 19 20 21 22 23 24 25 26 27 28 29
000
FTUS41 KOKX 240232 AAA
TAFTEB
TAF AMD
KTEB 240232Z 2403/2506 VRB04KT P6SM SCT250
     FM241300 14006KT P6SM BKN250
     FM241700 15011KT P6SM BKN200
     FM242300 14008KT P6SM BKN050 OVC150
     FM250200 10006KT 3SM -RA BKN020 OVC050=

USA.gov is the U.S. government's official web portal to all federal, state and local government web resources and services.